Terminal Aerodrome Forecast
Issued by NWS

Home | Current Version | Previous Version | Graphics & Text | Print | Product List | Glossary On
Versions: 1 2 3 4 5 6 7 8 9 10 11 12 13 14 15 16 17 18 19 20 21 22 23 24 25
276
FTUS43 KGRB 050152 AAA
TAFATW
TAF AMD
KATW 050152Z 0502/0524 21008KT 6SM BR OVC008
      TEMPO 0502/0506 3SM -FZDZSN BR BKN005
     FM050600 24009KT P6SM OVC015
     FM051400 21007KT P6SM BKN250
     FM051800 17010KT P6SM BKN080=

USA.gov is the U.S. government's official web portal to all federal, state and local government web resources and services.